Time;durP1;ratioP1;P1;durP2;ratioP2;P2;SDS_P1;SDS_P2;PMS_P1;PMS_P2;Temp;Humidity;BMP_temperature;BMP_pressure;BME280_temperature;BME280_humidity;BME280_pressure;Samples;Min_cycle;Max_cycle;Signal;HPM_P1;HPM_P2
2022/05/09 00:01:25;;;;;;;7.03;2.77;;;;;;;19.26;36.90;102896.09;5017117;28;20490;-69
2022/05/09 00:03:50;;;;;;;7.17;2.23;;;;;;;19.52;37.37;102886.88;5018927;28;20121;-69
2022/05/09 00:06:16;;;;;;;3.43;1.70;;;;;;;19.26;37.45;102891.69;5030832;28;20065;-69
2022/05/09 00:08:42;;;;;;;9.00;2.27;;;;;;;19.15;38.75;102899.78;5030493;28;20033;-69
2022/05/09 00:11:08;;;;;;;4.53;2.30;;;;;;;19.08;38.25;102884.84;5029928;28;20087;-69
2022/05/09 00:13:34;;;;;;;13.37;2.80;;;;;;;18.16;39.78;102888.50;5032346;28;20068;-69
2022/05/09 00:15:59;;;;;;;8.57;2.57;;;;;;;18.80;38.41;102893.09;5031474;28;20030;-69
2022/05/09 00:18:25;;;;;;;5.73;1.70;;;;;;;18.37;39.28;102883.00;5031704;28;20037;-69
2022/05/09 00:20:50;;;;;;;6.13;1.73;;;;;;;18.47;39.35;102889.06;5028644;28;20090;-69
2022/05/09 00:23:15;;;;;;;9.17;2.50;;;;;;;18.61;39.03;102880.97;5029267;28;20136;-69
2022/05/09 00:25:41;;;;;;;5.40;2.77;;;;;;;18.75;38.72;102883.44;5030578;28;20033;-69
2022/05/09 00:28:06;;;;;;;6.87;1.90;;;;;;;18.33;39.07;102881.28;5032114;28;20135;-69
2022/05/09 00:30:32;;;;;;;10.17;2.53;;;;;;;18.89;39.01;102876.25;5032264;28;20052;-69
2022/05/09 00:32:58;;;;;;;6.60;2.37;;;;;;;17.86;40.31;102879.88;5025444;28;20030;-69
2022/05/09 00:35:23;;;;;;;8.10;2.67;;;;;;;18.43;39.03;102872.31;5032886;28;20505;-69
2022/05/09 00:37:48;;;;;;;6.37;2.30;;;;;;;17.95;40.37;102874.56;5015145;28;20759;-69
2022/05/09 00:40:16;;;;;;;6.20;1.80;;;;;;;18.33;39.24;102869.78;5028731;28;20063;-69
2022/05/09 00:42:51;;;;;;;6.40;1.77;;;;;;;18.55;39.31;102862.53;5011236;28;20053;-69
2022/05/09 00:45:18;;;;;;;7.97;2.33;;;;;;;18.05;39.57;102864.78;5011805;28;20045;-69
2022/05/09 00:47:44;;;;;;;11.30;1.90;;;;;;;18.69;38.65;102865.88;5010864;28;20033;-69
2022/05/09 00:50:12;;;;;;;16.70;2.03;;;;;;;18.88;38.26;102863.91;5011868;28;20108;-69
2022/05/09 00:52:44;;;;;;;10.93;2.07;;;;;;;17.65;40.75;102865.94;5011703;28;20026;-69
2022/05/09 00:55:18;;;;;;;7.13;2.07;;;;;;;18.84;38.75;102871.88;5016331;28;20500;-69
2022/05/09 00:58:02;;;;;;;6.93;3.07;;;;;;;18.29;39.30;102868.97;5031049;28;20022;-69
2022/05/09 01:00:28;;;;;;;8.60;1.60;;;;;;;18.41;38.30;102863.53;5025664;28;20497;-69
2022/05/09 01:02:59;;;;;;;5.40;1.87;;;;;;;18.57;38.62;102868.66;5012691;28;20029;-69
2022/05/09 01:05:27;;;;;;;8.07;2.13;;;;;;;18.44;39.11;102860.84;5019950;28;20037;-69
2022/05/09 01:07:53;;;;;;;9.53;2.13;;;;;;;17.69;39.83;102861.53;5029633;28;20040;-69
2022/05/09 01:10:24;;;;;;;11.10;2.70;;;;;;;18.85;38.60;102857.72;5024626;28;20097;-69
2022/05/09 01:12:51;;;;;;;14.87;2.53;;;;;;;18.58;38.08;102847.44;5016987;28;20436;-69
2022/05/09 01:15:17;;;;;;;11.40;2.00;;;;;;;18.51;38.76;102850.22;5031869;28;20551;-69
2022/05/09 01:17:46;;;;;;;6.13;2.07;;;;;;;18.47;38.50;102852.00;5029462;28;20031;-69
2022/05/09 01:20:12;;;;;;;5.87;1.97;;;;;;;18.10;38.87;102847.09;5026968;28;20124;-69
2022/05/09 01:22:39;;;;;;;12.50;2.87;;;;;;;18.17;39.49;102848.78;5010544;28;20118;-69
2022/05/09 01:25:16;;;;;;;7.80;2.47;;;;;;;17.92;39.42;102848.16;5014190;28;20128;-69
2022/05/09 01:27:44;;;;;;;8.07;2.10;;;;;;;18.05;38.99;102839.22;5029925;28;20029;-69
2022/05/09 01:30:16;;;;;;;8.60;2.03;;;;;;;17.52;40.08;102845.78;5031030;28;20029;-69
2022/05/09 01:32:47;;;;;;;15.60;2.60;;;;;;;17.42;40.80;102847.59;5027889;28;20124;-69
2022/05/09 01:35:28;;;;;;;9.03;2.30;;;;;;;17.89;40.03;102843.72;5030352;28;20397;-69
2022/05/09 01:38:11;;;;;;;8.13;2.10;;;;;;;17.50;40.52;102834.34;5020515;28;20373;-69
2022/05/09 01:40:36;;;;;;;8.48;2.47;;;;;;;17.58;40.37;102835.16;5019543;28;20045;-69
2022/05/09 01:43:02;;;;;;;5.77;2.00;;;;;;;17.30;40.88;102836.22;5006630;28;20413;-69
2022/05/09 01:45:27;;;;;;;7.70;2.30;;;;;;;16.84;41.61;102843.50;5031439;28;20037;-69
2022/05/09 01:50:36;;;;;;;8.63;2.60;;;;;;;18.22;39.58;102830.22;5029821;28;20048;-69
2022/05/09 01:53:02;;;;;;;5.40;2.23;;;;;;;18.04;39.47;102829.50;5027755;28;20473;-69
2022/05/09 01:55:27;;;;;;;11.57;3.00;;;;;;;18.00;39.41;102833.06;5014026;28;20025;-69
2022/05/09 01:57:53;;;;;;;9.23;2.10;;;;;;;18.45;38.62;102828.19;5019664;28;20495;-69
2022/05/09 02:00:18;;;;;;;10.57;2.47;;;;;;;17.85;39.54;102831.41;5028502;28;20041;-69
2022/05/09 02:02:44;;;;;;;7.90;2.40;;;;;;;18.28;38.69;102824.84;5030912;28;20032;-69
2022/05/09 02:05:10;;;;;;;7.10;2.17;;;;;;;17.24;40.26;102831.00;5028947;28;20029;-70
2022/05/09 02:07:35;;;;;;;14.03;2.30;;;;;;;16.68;41.54;102833.00;5040907;28;20041;-69
2022/05/09 02:10:03;;;;;;;7.90;2.47;;;;;;;17.06;41.14;102824.06;5029077;28;20390;-69
2022/05/09 02:12:28;;;;;;;7.63;2.20;;;;;;;16.93;41.29;102822.38;5030810;28;20025;-69
2022/05/09 02:14:53;;;;;;;12.83;2.27;;;;;;;16.88;41.66;102824.09;5028476;28;20056;-69
2022/05/09 02:17:19;;;;;;;5.93;3.03;;;;;;;17.15;41.19;102824.91;5044123;28;20035;-69
2022/05/09 02:19:44;;;;;;;9.07;2.00;;;;;;;17.67;39.53;102815.69;5025311;28;20067;-69
2022/05/09 02:22:10;;;;;;;8.53;2.60;;;;;;;17.99;39.53;102815.44;5029642;28;20021;-69
2022/05/09 02:24:37;;;;;;;6.50;2.77;;;;;;;17.66;39.54;102819.25;5028672;28;20042;-69
2022/05/09 02:27:02;;;;;;;10.23;3.33;;;;;;;17.76;39.59;102821.81;5043829;28;20156;-69
2022/05/09 02:29:31;;;;;;;9.73;2.27;;;;;;;17.67;39.66;102813.94;5028338;28;20064;-69
2022/05/09 02:31:57;;;;;;;7.27;2.57;;;;;;;17.73;39.19;102808.59;5029007;28;20934;-68
2022/05/09 02:34:23;;;;;;;7.87;2.17;;;;;;;17.59;39.59;102810.47;5025548;28;20083;-68
2022/05/09 02:36:48;;;;;;;12.80;2.50;;;;;;;17.60;39.42;102814.88;5022178;28;20473;-70
2022/05/09 02:39:14;;;;;;;8.83;2.23;;;;;;;17.70;39.45;102816.56;5023249;28;20100;-68
2022/05/09 02:41:39;;;;;;;11.03;2.53;;;;;;;17.89;39.43;102819.03;5009297;28;20045;-69
2022/05/09 02:44:05;;;;;;;8.20;2.13;;;;;;;17.31;39.99;102826.56;5013314;28;20038;-68
2022/05/09 02:46:30;;;;;;;6.60;2.07;;;;;;;17.52;39.80;102819.34;5028425;28;20101;-68
2022/05/09 02:48:59;;;;;;;14.83;2.90;;;;;;;16.44;41.63;102819.00;5025809;28;20068;-69
2022/05/09 02:51:26;;;;;;;6.83;2.17;;;;;;;16.73;41.42;102820.66;5023874;28;20037;-68
2022/05/09 02:53:51;;;;;;;12.70;2.63;;;;;;;17.22;39.90;102821.31;5009745;28;20502;-69
2022/05/09 02:56:16;;;;;;;8.97;2.00;;;;;;;17.28;40.21;102813.34;5009835;28;20060;-69
2022/05/09 02:58:42;;;;;;;9.17;1.93;;;;;;;17.12;40.39;102816.09;5023978;28;20033;-69
2022/05/09 03:01:07;;;;;;;13.13;3.00;;;;;;;16.76;41.37;102814.47;5009409;28;20061;-68
2022/05/09 03:06:16;;;;;;;7.60;2.10;;;;;;;16.76;40.89;102810.09;5010972;28;20045;-68
2022/05/09 03:08:41;;;;;;;10.67;2.93;;;;;;;16.74;40.99;102801.28;5023474;28;20048;-69
2022/05/09 03:11:07;;;;;;;9.23;2.50;;;;;;;17.05;40.11;102795.88;5009792;28;20064;-69
2022/05/09 03:13:33;;;;;;;9.70;2.47;;;;;;;17.01;40.45;102801.16;5024275;28;20470;-68
2022/05/09 03:16:00;;;;;;;16.60;3.10;;;;;;;17.05;40.19;102801.16;5028281;28;20477;-68
2022/05/09 03:18:26;;;;;;;12.53;2.70;;;;;;;17.35;39.52;102793.03;5025731;28;20021;-69
2022/05/09 03:20:52;;;;;;;8.50;2.40;;;;;;;17.33;39.89;102795.69;5024719;28;20041;-68
2022/05/09 03:23:18;;;;;;;8.47;2.40;;;;;;;17.50;39.70;102792.03;5029119;28;20039;-69
2022/05/09 03:25:43;;;;;;;13.80;2.60;;;;;;;17.30;40.17;102787.78;5045241;28;20112;-69
2022/05/09 03:28:12;;;;;;;10.47;2.27;;;;;;;17.28;40.07;102786.91;5007551;28;20434;-68
2022/05/09 03:30:38;;;;;;;8.00;2.93;;;;;;;17.22;40.03;102784.31;5027460;28;20458;-68
2022/05/09 03:33:06;;;;;;;11.70;2.77;;;;;;;16.84;40.51;102788.03;5029397;28;20044;-69
2022/05/09 03:35:32;;;;;;;7.87;2.30;;;;;;;17.18;39.99;102780.81;5027400;28;20033;-68
2022/05/09 03:37:57;;;;;;;8.63;2.77;;;;;;;17.54;39.64;102785.84;5027656;28;20025;-68
2022/05/09 03:40:23;;;;;;;10.57;2.80;;;;;;;17.12;40.31;102781.75;5025601;28;20045;-68
2022/05/09 03:42:48;;;;;;;10.30;2.40;;;;;;;16.61;41.53;102791.69;5031443;28;20107;-68
2022/05/09 03:45:15;;;;;;;6.23;2.50;;;;;;;16.52;41.44;102786.44;5034552;28;20034;-68
2022/05/09 03:47:41;;;;;;;12.13;2.77;;;;;;;16.59;41.85;102791.66;5020601;28;20022;-68
2022/05/09 03:50:08;;;;;;;10.13;2.90;;;;;;;16.53;41.68;102790.84;5039136;28;20029;-69
2022/05/09 03:52:33;;;;;;;11.57;3.00;;;;;;;16.78;41.20;102784.53;5012553;28;20022;-69
2022/05/09 03:54:59;;;;;;;8.13;2.70;;;;;;;16.99;40.84;102780.06;5013381;28;20462;-68
2022/05/09 03:57:25;;;;;;;10.20;3.33;;;;;;;16.96;40.76;102774.78;5016147;28;20067;-69
2022/05/09 03:59:51;;;;;;;8.00;2.30;;;;;;;17.51;40.04;102783.22;5027432;28;20087;-69
2022/05/09 04:02:17;;;;;;;5.80;2.70;;;;;;;17.45;40.09;102771.81;5012517;28;20046;-69
2022/05/09 04:04:42;;;;;;;9.60;2.77;;;;;;;17.17;40.57;102772.91;5011086;28;20065;-69
2022/05/09 04:07:08;;;;;;;8.63;2.67;;;;;;;17.01;41.24;102766.81;5014052;28;20050;-69
2022/05/09 04:09:34;;;;;;;7.77;2.60;;;;;;;16.95;40.81;102766.00;5015460;28;20033;-69
2022/05/09 04:11:59;;;;;;;8.40;2.70;;;;;;;16.99;40.99;102771.25;5032001;28;20025;-69
2022/05/09 04:17:16;;;;;;;7.40;3.03;;;;;;;16.62;41.55;102760.00;5020004;28;20107;-69
2022/05/09 04:19:41;;;;;;;;;;;;;;;16.57;41.48;102766.19;5028552;28;20474;-69
2022/05/09 04:22:07;;;;;;;11.20;3.27;;;;;;;16.53;42.15;102761.78;5012829;28;19964;-69
2022/05/09 04:24:33;;;;;;;8.43;2.87;;;;;;;16.79;41.33;102762.53;5011816;28;20033;-68
2022/05/09 04:27:00;;;;;;;13.97;3.20;;;;;;;16.43;42.85;102769.75;5012395;28;20037;-68
2022/05/09 04:29:26;;;;;;;15.13;3.90;;;;;;;16.25;42.65;102780.34;5030819;28;20021;-69
2022/05/09 04:31:52;;;;;;;12.63;3.20;;;;;;;16.94;40.93;102771.31;5029558;28;20037;-69
2022/05/09 04:34:17;;;;;;;11.27;2.87;;;;;;;15.89;42.41;102774.28;5032514;28;20037;-69
2022/05/09 04:36:43;;;;;;;10.27;2.60;;;;;;;16.14;42.92;102766.31;5017728;28;20084;-69
2022/05/09 04:39:08;;;;;;;10.40;2.83;;;;;;;16.42;42.62;102757.44;5028996;28;20041;-68
2022/05/09 04:41:36;;;;;;;12.37;2.60;;;;;;;16.69;42.10;102755.56;5012771;28;20060;-69
2022/05/09 04:44:03;;;;;;;21.43;4.33;;;;;;;16.50;41.98;102760.03;5012023;28;20038;-69
2022/05/09 04:46:28;;;;;;;8.30;3.00;;;;;;;16.86;42.43;102758.09;5029155;28;20535;-69
2022/05/09 04:48:53;;;;;;;7.73;2.80;;;;;;;17.22;40.85;102749.97;5031152;28;20120;-69
2022/05/09 04:51:19;;;;;;;12.67;2.77;;;;;;;16.77;41.78;102753.75;5043968;28;20037;-68
2022/05/09 04:53:47;;;;;;;7.07;2.30;;;;;;;16.03;43.60;102759.31;5047579;28;20125;-68
2022/05/09 04:56:12;;;;;;;7.23;2.47;;;;;;;16.06;43.25;102759.31;5031971;28;20504;-68
2022/05/09 04:58:37;;;;;;;12.83;4.53;;;;;;;16.76;41.53;102752.00;5019347;28;20034;-68
2022/05/09 05:01:03;;;;;;;9.83;2.97;;;;;;;15.23;44.33;102764.59;5021250;28;20038;-68
2022/05/09 05:03:28;;;;;;;7.77;2.40;;;;;;;16.44;42.56;102753.03;5016348;28;20033;-69
2022/05/09 05:05:53;;;;;;;4.67;2.73;;;;;;;16.78;41.01;102750.22;5031299;28;20405;-68
2022/05/09 05:08:20;;;;;;;10.30;3.33;;;;;;;17.15;40.75;102748.28;5030061;28;20508;-68
2022/05/09 05:10:52;;;;;;;13.73;3.17;;;;;;;17.53;39.88;102749.72;5029564;28;20041;-68
2022/05/09 05:13:18;;;;;;;4.53;2.87;;;;;;;17.88;39.38;102751.16;5019530;28;20034;-69
2022/05/09 05:15:43;;;;;;;8.73;2.80;;;;;;;17.37;40.34;102752.50;5022602;28;20366;-69
2022/05/09 05:18:09;;;;;;;12.27;3.70;;;;;;;17.57;40.13;102754.06;5026073;28;20169;-68
2022/05/09 05:20:35;;;;;;;9.93;3.00;;;;;;;17.62;39.55;102757.56;5022079;28;20029;-68
2022/05/09 05:23:00;;;;;;;11.27;3.03;;;;;;;17.68;39.88;102754.88;5028139;28;20033;-68
2022/05/09 05:25:28;;;;;;;10.17;3.03;;;;;;;17.04;41.38;102745.69;5011717;28;20037;-68
2022/05/09 05:27:54;;;;;;;6.43;2.90;;;;;;;18.38;38.87;102741.81;5025728;28;20164;-68
2022/05/09 05:30:21;;;;;;;13.80;3.60;;;;;;;18.40;38.69;102744.44;5014056;28;20566;-69
2022/05/09 05:32:48;;;;;;;8.27;4.07;;;;;;;18.14;38.79;102741.19;5012500;28;20058;-69
2022/05/09 05:35:20;;;;;;;8.23;3.03;;;;;;;18.54;38.75;102739.81;5016216;28;20155;-68
2022/05/09 05:37:45;;;;;;;12.70;3.53;;;;;;;18.60;38.73;102746.78;5012628;28;20033;-68
2022/05/09 05:40:13;;;;;;;10.93;3.00;;;;;;;18.61;38.62;102748.56;5030908;28;20090;-68
2022/05/09 05:42:40;;;;;;;12.57;3.27;;;;;;;18.61;38.29;102743.25;5028897;28;20052;-69
2022/05/09 05:45:06;;;;;;;8.77;2.90;;;;;;;18.26;38.68;102744.59;5028564;28;20029;-68
2022/05/09 05:47:32;;;;;;;8.50;2.80;;;;;;;18.11;39.42;102754.47;5030945;28;20037;-68
2022/05/09 05:49:57;;;;;;;7.70;2.77;;;;;;;18.19;39.39;102745.53;5011902;28;20233;-68
2022/05/09 05:52:22;;;;;;;8.23;3.03;;;;;;;17.74;39.79;102748.66;5029202;28;20029;-69
2022/05/09 05:54:48;;;;;;;11.23;3.10;;;;;;;17.93;40.04;102755.53;5029562;28;20035;-69
2022/05/09 05:57:28;;;;;;;7.87;2.83;;;;;;;18.53;38.82;102745.13;5021598;28;20038;-68
2022/05/09 05:59:57;;;;;;;7.17;3.17;;;;;;;18.59;38.96;102751.22;5014301;28;20487;-69
2022/05/09 06:02:24;;;;;;;12.70;2.93;;;;;;;19.07;37.83;102741.75;5025387;28;20040;-68
2022/05/09 06:04:50;;;;;;;9.53;2.73;;;;;;;19.02;37.60;102743.59;5031417;28;20162;-68
2022/05/09 06:07:16;;;;;;;12.27;2.93;;;;;;;18.89;38.76;102754.38;5031157;28;20025;-68
2022/05/09 06:09:44;;;;;;;5.73;3.33;;;;;;;18.81;38.39;102751.81;5011883;28;20034;-68
2022/05/09 06:12:11;;;;;;;5.70;2.67;;;;;;;19.36;37.53;102757.19;5011025;28;20029;-68
2022/05/09 06:14:37;;;;;;;17.43;4.10;;;;;;;19.76;36.86;102759.16;5012082;28;20140;-68
2022/05/09 06:17:07;;;;;;;10.00;3.70;;;;;;;18.78;38.62;102746.56;5013169;28;20033;-69
2022/05/09 06:19:32;;;;;;;12.50;3.80;;;;;;;18.88;38.88;102757.94;5005298;28;20121;-68
2022/05/09 06:21:59;;;;;;;10.73;4.13;;;;;;;18.96;38.75;102753.41;5027574;28;20034;-68
2022/05/09 06:24:24;;;;;;;9.90;3.97;;;;;;;19.74;37.20;102760.06;5026261;28;20037;-68
2022/05/09 06:26:50;;;;;;;10.53;3.63;;;;;;;19.81;37.54;102757.31;5027045;28;20033;-68
2022/05/09 06:29:16;;;;;;;14.27;3.90;;;;;;;20.25;36.55;102757.38;5029327;28;20079;-68
2022/05/09 06:31:42;;;;;;;9.37;3.83;;;;;;;19.09;38.39;102751.41;5027724;28;20033;-68
2022/05/09 06:34:11;;;;;;;8.07;3.87;;;;;;;19.95;36.97;102770.34;5027049;28;20037;-69
2022/05/09 06:36:37;;;;;;;13.77;3.87;;;;;;;20.02;36.86;102763.13;5030193;28;20405;-68
2022/05/09 06:39:05;;;;;;;9.97;3.23;;;;;;;20.49;36.24;102750.66;5017207;28;20033;-68
2022/05/09 06:41:31;;;;;;;10.43;3.80;;;;;;;21.72;35.55;102746.03;5025080;28;20031;-68
2022/05/09 06:43:56;;;;;;;11.80;3.57;;;;;;;23.58;33.55;102749.28;5029892;28;20026;-68
2022/05/09 06:46:22;;;;;;;9.82;3.30;;;;;;;25.10;29.47;102747.16;5025553;28;20029;-69
2022/05/09 06:48:48;;;;;;;10.50;2.78;;;;;;;27.37;27.45;102743.97;4976157;28;20026;-68
2022/05/09 06:51:13;;;;;;;7.50;2.97;;;;;;;28.24;25.51;102740.28;5029373;28;20107;-70
2022/05/09 06:53:39;;;;;;;10.52;3.38;;;;;;;29.21;24.24;102736.56;5006985;28;20032;-70
2022/05/09 06:56:04;;;;;;;10.43;3.15;;;;;;;29.78;23.76;102742.09;5029695;28;20055;-68
2022/05/09 06:58:31;;;;;;;8.52;2.70;;;;;;;29.25;22.87;102749.81;5029431;28;20053;-70
2022/05/09 07:00:57;;;;;;;7.47;2.60;;;;;;;30.06;22.32;102750.31;5028601;28;20033;-71
2022/05/09 07:03:24;;;;;;;9.73;2.63;;;;;;;28.10;24.33;102751.81;5027360;28;20025;-68
2022/05/09 07:05:51;;;;;;;8.43;2.33;;;;;;;28.35;24.89;102751.31;5026858;28;20028;-68
2022/05/09 07:08:18;;;;;;;5.43;2.85;;;;;;;29.88;22.68;102747.84;5025977;28;20055;-68
2022/05/09 07:10:44;;;;;;;11.52;3.45;;;;;;;29.70;21.78;102748.94;5024178;28;20053;-68
2022/05/09 07:13:10;;;;;;;7.53;3.05;;;;;;;30.87;22.04;102744.22;5029093;28;20051;-68
2022/05/09 07:15:36;;;;;;;9.15;2.90;;;;;;;31.63;21.72;102745.38;5030171;28;20079;-68
2022/05/09 07:18:03;;;;;;;12.18;3.28;;;;;;;31.96;21.60;102745.78;5028257;28;20029;-68
2022/05/09 07:20:30;;;;;;;8.35;3.20;;;;;;;32.38;21.39;102751.78;5022767;28;20022;-68
2022/05/09 07:23:07;;;;;;;6.13;2.53;;;;;;;33.40;19.78;102748.72;5026115;28;20557;-69
2022/05/09 07:25:33;;;;;;;6.07;2.92;;;;;;;31.52;20.64;102764.16;5026533;28;20030;-68
2022/05/09 07:27:58;;;;;;;11.13;3.22;;;;;;;32.82;20.77;102754.88;5027314;28;20039;-68
2022/05/09 07:30:24;;;;;;;8.40;2.17;;;;;;;31.66;19.45;102759.66;5022164;28;20037;-68
2022/05/09 07:32:52;;;;;;;8.98;3.15;;;;;;;33.57;18.74;102745.56;5029702;28;20432;-68
2022/05/09 07:35:17;;;;;;;9.65;3.58;;;;;;;33.93;18.29;102754.47;5027414;28;20032;-68
2022/05/09 07:37:44;;;;;;;8.52;2.90;;;;;;;34.79;18.61;102754.72;5027589;28;20025;-68
2022/05/09 07:40:12;;;;;;;9.43;3.17;;;;;;;33.75;18.95;102754.06;5020976;28;20025;-68
2022/05/09 07:42:40;;;;;;;9.35;3.00;;;;;;;35.11;17.99;102742.16;5023522;28;20046;-68
2022/05/09 07:45:07;;;;;;;8.38;2.63;;;;;;;35.50;17.28;102736.97;5023500;28;20034;-68
2022/05/09 07:47:32;;;;;;;6.88;2.63;;;;;;;35.28;18.83;102736.13;5030210;28;20029;-68
2022/05/09 07:49:57;;;;;;;12.48;3.67;;;;;;;33.33;17.77;102742.91;5026631;28;20352;-68
2022/05/09 07:52:23;;;;;;;6.05;3.00;;;;;;;34.92;19.24;102743.69;5025453;28;20485;-68
2022/05/09 07:54:49;;;;;;;8.63;2.80;;;;;;;35.32;16.75;102740.31;5034807;28;20469;-68
2022/05/09 07:57:15;;;;;;;9.25;2.67;;;;;;;34.72;18.88;102747.22;5038382;28;20029;-68
2022/05/09 07:59:40;;;;;;;7.85;2.60;;;;;;;35.29;17.06;102742.41;5027771;28;20060;-68
2022/05/09 08:02:06;;;;;;;7.97;2.90;;;;;;;35.84;16.44;102750.34;5026124;28;20501;-68
2022/05/09 08:04:32;;;;;;;5.28;2.83;;;;;;;36.79;15.76;102732.66;5025986;28;20405;-68
2022/05/09 08:06:58;;;;;;;11.02;3.63;;;;;;;34.92;17.98;102743.69;5024497;28;20021;-68
2022/05/09 08:09:23;;;;;;;8.25;2.83;;;;;;;37.12;16.03;102746.00;5028098;28;20366;-68
2022/05/09 08:11:48;;;;;;;14.70;4.55;;;;;;;36.58;17.37;102740.97;5028174;28;20357;-68
2022/05/09 08:14:14;;;;;;;8.68;3.15;;;;;;;37.75;16.09;102741.84;5027479;28;20021;-68
2022/05/09 08:16:40;;;;;;;7.90;3.00;;;;;;;37.69;16.34;102738.72;5023770;28;20028;-68
2022/05/09 08:19:05;;;;;;;6.75;2.60;;;;;;;37.00;16.29;102738.00;5026061;28;20041;-68
2022/05/09 08:21:30;;;;;;;10.40;3.47;;;;;;;36.88;16.38;102739.16;5028389;28;20021;-68
2022/05/09 08:23:57;;;;;;;6.30;2.58;;;;;;;36.87;16.01;102739.31;5026808;28;20057;-68
2022/05/09 08:26:23;;;;;;;14.65;4.22;;;;;;;37.95;15.57;102748.97;5029312;28;20032;-68
2022/05/09 08:28:49;;;;;;;9.65;3.03;;;;;;;37.92;14.67;102743.81;5030317;28;20033;-67
2022/05/09 08:31:18;;;;;;;12.50;3.15;;;;;;;36.84;17.20;102743.16;5033080;28;20037;-68
2022/05/09 08:33:49;;;;;;;6.22;2.78;;;;;;;37.47;15.24;102733.63;5031241;28;20044;-68
2022/05/09 08:36:46;;;;;;;9.07;3.10;;;;;;;38.94;13.90;102736.38;5030121;28;20029;-68
2022/05/09 08:39:00;;;;;;;7.13;2.92;;;;;;;38.43;15.72;102732.47;5030945;28;20091;-68
2022/05/09 08:41:29;;;;;;;8.88;3.20;;;;;;;39.00;14.61;102733.00;5031176;28;20460;-67
2022/05/09 08:43:55;;;;;;;7.57;3.08;;;;;;;38.63;15.68;102731.28;5030089;28;20124;-69
2022/05/09 08:46:43;;;;;;;9.98;3.08;;;;;;;37.91;15.01;102735.75;5029907;28;20124;-68
2022/05/09 08:49:24;;;;;;;9.30;2.80;;;;;;;38.47;14.14;102742.06;5018403;28;20033;-68
2022/05/09 08:52:01;;;;;;;10.48;3.08;;;;;;;36.88;15.57;102730.97;5030868;28;20055;-67
2022/05/09 08:54:27;;;;;;;7.22;2.90;;;;;;;38.82;14.53;102740.38;5031803;28;20045;-67
2022/05/09 08:56:58;;;;;;;5.88;2.63;;;;;;;38.78;14.60;102733.53;5030249;28;20112;-67
2022/05/09 08:59:28;;;;;;;7.75;3.10;;;;;;;40.11;15.56;102731.47;5015199;28;20438;-68
2022/05/09 09:02:11;;;;;;;7.00;3.30;;;;;;;40.88;13.62;102722.16;5025369;28;20076;-68
2022/05/09 09:04:37;;;;;;;8.88;3.67;;;;;;;39.69;12.82;102718.63;5021188;28;20048;-67
2022/05/09 09:07:05;;;;;;;8.88;2.80;;;;;;;40.37;13.36;102719.56;5018513;28;20044;-68
2022/05/09 09:09:39;;;;;;;10.52;3.15;;;;;;;38.35;14.80;102720.44;5019730;28;20462;-67
2022/05/09 09:12:34;;;;;;;7.18;2.90;;;;;;;39.98;13.87;102720.97;5019350;28;20039;-68
2022/05/09 09:15:24;;;;;;;5.85;2.67;;;;;;;39.99;13.29;102711.72;5030898;28;20477;-68
2022/05/09 09:18:18;;;;;;;5.40;2.53;;;;;;;40.43;13.89;102712.53;5028640;28;20084;-68
2022/05/09 09:21:05;;;;;;;5.47;2.47;;;;;;;39.07;13.85;102705.06;5016723;28;20082;-68
2022/05/09 09:23:49;;;;;;;8.85;2.50;;;;;;;40.77;12.35;102697.88;5026017;28;20377;-68
2022/05/09 09:26:36;;;;;;;8.90;3.30;;;;;;;39.31;13.31;102696.16;5023620;28;20029;-68
2022/05/09 09:29:10;;;;;;;6.57;2.58;;;;;;;40.52;13.34;102695.97;5024581;28;20029;-68
2022/05/09 09:31:46;;;;;;;6.45;2.72;;;;;;;38.05;13.65;102701.69;5028474;28;20044;-69
2022/05/09 09:34:34;;;;;;;6.40;2.65;;;;;;;36.92;13.21;102702.44;5030970;28;20025;-68
2022/05/09 09:37:13;;;;;;;8.05;2.63;;;;;;;38.20;14.00;102691.94;5021683;28;20104;-68
2022/05/09 09:39:39;;;;;;;8.25;2.58;;;;;;;39.77;12.50;102684.97;5029945;28;20030;-68
2022/05/09 09:42:05;;;;;;;4.72;2.28;;;;;;;39.94;12.32;102692.22;5029137;28;20072;-68
2022/05/09 09:44:34;;;;;;;4.70;2.30;;;;;;;39.90;12.05;102688.09;5030086;28;20022;-68
2022/05/09 09:47:10;;;;;;;10.52;2.67;;;;;;;39.73;13.64;102683.59;5046631;28;20380;-68
2022/05/09 09:49:41;;;;;;;8.00;2.25;;;;;;;40.22;13.67;102691.97;5024977;28;20064;-68
2022/05/09 09:52:20;;;;;;;5.97;2.10;;;;;;;41.20;11.62;102671.91;5029606;28;20044;-68
2022/05/09 09:54:55;;;;;;;7.63;2.83;;;;;;;38.86;12.23;102673.47;5021122;28;20018;-68
2022/05/09 09:57:25;;;;;;;10.70;2.53;;;;;;;39.56;12.46;102678.03;5030635;28;20104;-68
2022/05/09 09:59:51;;;;;;;5.43;2.20;;;;;;;39.55;12.57;102669.97;5012337;28;20029;-68
2022/05/09 10:02:26;;;;;;;5.47;2.05;;;;;;;40.82;11.99;102665.28;5027492;28;20527;-68
2022/05/09 10:04:56;;;;;;;3.90;2.00;;;;;;;39.05;12.50;102663.34;5009914;28;20057;-69
2022/05/09 10:07:27;;;;;;;6.55;2.17;;;;;;;39.91;12.26;102670.63;5023921;28;20021;-68
2022/05/09 10:10:18;;;;;;;10.52;2.60;;;;;;;41.20;12.73;102660.94;5028002;28;20033;-69
2022/05/09 10:12:55;;;;;;;4.85;2.13;;;;;;;40.19;12.00;102663.03;5026920;28;20065;-68
2022/05/09 10:15:29;;;;;;;4.95;1.83;;;;;;;39.33;13.65;102655.84;5026273;28;20056;-68
2022/05/09 10:17:56;;;;;;;5.47;2.70;;;;;;;37.83;13.33;102651.97;5021254;28;20033;-68
2022/05/09 10:20:37;;;;;;;5.40;2.40;;;;;;;40.48;12.35;102655.38;5020633;28;20164;-68
2022/05/09 10:26:05;;;;;;;6.10;2.00;;;;;;;39.38;11.89;102650.75;5023077;28;20083;-68
2022/05/09 10:28:35;;;;;;;4.75;2.25;;;;;;;39.52;12.21;102644.66;5026340;28;20116;-68
2022/05/09 10:31:23;;;;;;;4.72;1.85;;;;;;;40.05;11.85;102651.91;5023619;28;20056;-68
2022/05/09 10:34:13;;;;;;;6.78;2.03;;;;;;;38.54;12.06;102628.47;5027602;28;20056;-68
2022/05/09 10:37:03;;;;;;;4.82;1.90;;;;;;;38.14;13.71;102632.50;5010580;28;20432;-69
2022/05/09 10:39:52;;;;;;;7.85;2.67;;;;;;;36.36;13.69;102643.25;5016356;28;20037;-68
2022/05/09 10:42:32;;;;;;;3.75;1.73;;;;;;;37.51;13.94;102636.91;5028292;28;20136;-68
2022/05/09 10:45:15;;;;;;;2.75;1.30;;;;;;;38.11;13.25;102636.38;5028453;28;20029;-68
2022/05/09 10:48:06;;;;;;;7.47;2.08;;;;;;;39.01;12.30;102630.03;5027717;28;20025;-68
2022/05/09 10:50:42;;;;;;;3.75;1.55;;;;;;;39.00;11.84;102622.84;5028466;28;20040;-68
2022/05/09 10:53:36;;;;;;;5.75;1.67;;;;;;;37.65;14.47;102621.91;5041176;28;20079;-68
2022/05/09 10:56:08;;;;;;;8.32;2.00;;;;;;;38.40;12.34;102620.84;5026877;28;20453;-68
2022/05/09 10:58:43;;;;;;;4.72;1.48;;;;;;;39.71;11.88;102620.84;5025504;28;20037;-69
2022/05/09 11:01:16;;;;;;;8.52;2.22;;;;;;;38.71;12.74;102614.97;5030781;28;20223;-68
2022/05/09 11:03:44;;;;;;;3.13;1.50;;;;;;;39.35;12.40;102616.41;5028403;28;20033;-69
2022/05/09 11:06:42;;;;;;;8.00;2.08;;;;;;;38.91;12.05;102613.75;5023844;28;20584;-68
2022/05/09 11:09:26;;;;;;;4.60;1.77;;;;;;;38.40;12.34;102609.91;5028512;28;20041;-68
2022/05/09 11:12:16;;;;;;;4.93;2.20;;;;;;;40.28;11.41;102611.88;5028077;28;20037;-68
2022/05/09 11:15:00;;;;;;;4.05;1.75;;;;;;;40.16;12.21;102610.50;5026756;28;20037;-68
2022/05/09 11:17:31;;;;;;;3.80;1.55;;;;;;;40.59;11.49;102611.22;5012884;28;20478;-68
2022/05/09 11:20:18;;;;;;;5.15;1.90;;;;;;;38.82;12.79;102615.56;5008704;28;20087;-69
2022/05/09 11:23:08;;;;;;;4.18;2.20;;;;;;;37.52;14.02;102605.88;5008381;28;20026;-68
2022/05/09 11:25:38;;;;;;;3.88;2.10;;;;;;;37.09;13.09;102601.88;5037077;28;20043;-68
2022/05/09 11:28:18;;;;;;;6.07;2.05;;;;;;;35.67;13.98;102616.72;5012706;28;20458;-68
2022/05/09 11:30:50;;;;;;;6.28;2.47;;;;;;;35.67;14.33;102596.84;5027563;28;20538;-69
2022/05/09 11:33:30;;;;;;;7.60;2.35;;;;;;;37.63;12.90;102588.44;5038341;28;20385;-69
2022/05/09 11:36:01;;;;;;;9.18;2.20;;;;;;;37.90;13.54;102593.03;5028940;28;20719;-69
2022/05/09 11:38:49;;;;;;;6.00;1.92;;;;;;;37.50;13.87;102591.53;5033640;28;20080;-70
2022/05/09 11:41:33;;;;;;;3.88;1.85;;;;;;;38.69;13.19;102583.22;5026418;28;20122;-69
2022/05/09 11:43:58;;;;;;;7.15;2.10;;;;;;;38.82;12.33;102587.38;5025251;28;20489;-70
2022/05/09 11:46:29;;;;;;;6.38;2.90;;;;;;;37.90;12.80;102584.00;5011586;28;20065;-69